SBMQ/MCP METAR and TAF weather

Enter ICAO airport designator
Station Type Date Time Source
SBMQ METAR 2020/04/10 17:00 UTC NOAA

SBMQ 101700Z 04008KT 9999 VCSH SCT017 FEW020TCU BKN100 27/27 Q1011


Station Type Date Time Source
SBMQ Decoded METAR 2020/04/10 17:00 UTC NOAA

Macapa, Brazil (SBMQ) 00-02N 050-03W
Apr 10, 2020 - 01:00 PM EDT / 2020.04.10 1700 UTC
Wind: from the NE (040 degrees) at 9 MPH (8 KT):0
Visibility: greater than 7 mile(s):0
Sky conditions: mostly cloudy
Weather: showers in the vicinity; Towering cumulus clouds observed
Temperature: 80 F (27 C)
Dew Point: 80 F (27 C)
Relative Humidity: 100%
Pressure (altimeter): 29.85 in. Hg (1011 hPa)
ob: SBMQ 101700Z 04008KT 9999 VCSH SCT017 FEW020TCU BKN100 27/27 Q1011
cycle: 17

Station Type Date Time Source
SBMQ TAF 2020/04/10 18:45 UTC NOAA

TAF SBMQ 101500Z 1018/1118 05007KT 9999 SCT027 FEW033TCU TX30/1018Z TN26/1109Z
BECMG 1019/1021 07006KT FEW017
BECMG 1022/1024 30003KT SCT017
BECMG 1107/1109 FEW017
BECMG 1113/1115 09008KT BKN018
BECMG 1116/1118 02007KT SCT020
RMK PEW

Example: see airport list